createdAt,value
2018-08-30T00:01:38.169Z,99.50
2018-08-30T00:04:07.003Z,99.50
2018-08-30T00:06:35.833Z,99.50
2018-08-30T00:09:04.667Z,99.60
2018-08-30T00:11:34.243Z,99.50
2018-08-30T00:14:03.080Z,99.50
2018-08-30T00:16:31.921Z,99.60
2018-08-30T00:19:00.755Z,99.80
2018-08-30T00:21:29.585Z,99.70
2018-08-30T00:23:58.422Z,99.60
2018-08-30T00:26:27.248Z,99.60
2018-08-30T00:28:56.081Z,99.40
2018-08-30T00:31:24.925Z,99.20
2018-08-30T00:33:53.771Z,99.10
2018-08-30T00:36:23.349Z,99.20
2018-08-30T00:38:52.178Z,99.10
2018-08-30T00:41:21.038Z,99.20
2018-08-30T00:43:49.844Z,98.80
2018-08-30T00:46:18.676Z,98.90
2018-08-30T00:48:47.504Z,98.90
2018-08-30T00:51:16.343Z,98.80
2018-08-30T00:53:45.169Z,98.80
2018-08-30T00:56:14.007Z,98.70
2018-08-30T00:58:42.834Z,98.60
2018-08-30T01:01:11.668Z,98.70
2018-08-30T01:03:40.512Z,98.80
2018-08-30T01:06:09.357Z,99.50
2018-08-30T01:08:38.188Z,99.90
2018-08-30T01:11:07.030Z,99.90
2018-08-30T01:13:35.876Z,99.90
2018-08-30T01:16:04.698Z,99.90
2018-08-30T01:18:33.531Z,99.90
2018-08-30T01:21:02.365Z,99.90
2018-08-30T01:23:31.209Z,99.90
2018-08-30T01:26:00.034Z,99.90
2018-08-30T01:28:28.888Z,99.90
2018-08-30T01:30:57.724Z,99.90
2018-08-30T01:33:27.302Z,99.90
2018-08-30T01:35:56.146Z,99.90
2018-08-30T01:38:24.979Z,99.90
2018-08-30T01:40:53.826Z,99.90
2018-08-30T01:43:22.662Z,99.90
2018-08-30T01:45:51.485Z,99.90
2018-08-30T01:48:20.315Z,99.90
2018-08-30T01:50:49.151Z,99.90
2018-08-30T01:53:17.986Z,99.90
2018-08-30T01:55:46.831Z,99.90
2018-08-30T01:58:16.417Z,99.90
2018-08-30T02:00:45.254Z,99.90
2018-08-30T02:03:14.095Z,99.90
2018-08-30T02:05:42.938Z,99.90
2018-08-30T02:08:11.778Z,99.90
2018-08-30T02:10:40.627Z,99.90
2018-08-30T02:13:09.457Z,99.90
2018-08-30T02:15:38.304Z,99.90
2018-08-30T02:18:07.153Z,99.90
2018-08-30T02:20:36.737Z,99.90
2018-08-30T02:23:05.576Z,99.90
2018-08-30T02:25:34.408Z,99.90
2018-08-30T02:28:03.236Z,99.90
2018-08-30T02:30:32.075Z,99.90
2018-08-30T02:33:00.925Z,99.90
2018-08-30T02:35:29.764Z,99.90
2018-08-30T02:37:58.590Z,99.90
2018-08-30T02:40:28.169Z,99.90
2018-08-30T02:42:56.995Z,99.90
2018-08-30T02:45:25.833Z,99.90
2018-08-30T02:47:54.675Z,99.90
2018-08-30T02:50:23.508Z,99.90
2018-08-30T02:52:52.345Z,99.90
2018-08-30T02:55:21.180Z,99.90
2018-08-30T02:57:50.019Z,99.90
2018-08-30T03:00:18.869Z,99.90
2018-08-30T03:02:47.722Z,99.90
2018-08-30T03:05:16.571Z,99.90
2018-08-30T03:07:46.144Z,99.90
2018-08-30T03:10:14.986Z,99.90
2018-08-30T03:12:43.816Z,99.90
2018-08-30T03:15:13.379Z,99.90
2018-08-30T03:17:43.564Z,99.90
2018-08-30T03:20:12.407Z,99.90
2018-08-30T03:22:41.261Z,99.90
2018-08-30T03:25:10.115Z,99.90
2018-08-30T03:27:38.952Z,99.90
2018-08-30T03:30:08.603Z,99.90
2018-08-30T03:32:37.347Z,99.90
2018-08-30T03:35:06.172Z,99.90
2018-08-30T03:37:35.021Z,99.90
2018-08-30T03:40:04.596Z,99.90
2018-08-30T03:42:33.431Z,99.90
2018-08-30T03:45:02.266Z,99.90
2018-08-30T03:47:31.119Z,99.90
2018-08-30T03:49:59.942Z,99.90
2018-08-30T03:52:28.770Z,99.90
2018-08-30T03:54:57.626Z,99.90
2018-08-30T03:57:26.447Z,99.90
2018-08-30T03:59:55.279Z,99.90
2018-08-30T04:02:24.113Z,99.90
2018-08-30T04:04:52.945Z,99.90
2018-08-30T04:07:21.784Z,99.90
2018-08-30T04:09:50.663Z,99.90
2018-08-30T04:12:19.451Z,99.90
2018-08-30T04:14:48.289Z,99.90
2018-08-30T04:17:17.133Z,99.90
2018-08-30T04:19:45.968Z,99.90
2018-08-30T04:22:14.807Z,99.90
2018-08-30T04:24:56.326Z,99.90
2018-08-30T04:27:25.937Z,99.90
2018-08-30T04:29:54.751Z,99.90
2018-08-30T04:32:23.579Z,99.90
2018-08-30T04:34:52.411Z,99.90
2018-08-30T04:37:21.257Z,99.90
2018-08-30T04:39:50.088Z,99.90
2018-08-30T04:42:18.959Z,99.90
2018-08-30T04:44:47.760Z,99.90
2018-08-30T04:47:16.591Z,99.90
2018-08-30T04:49:45.422Z,99.90
2018-08-30T04:52:14.996Z,99.90
2018-08-30T04:54:43.825Z,99.90
2018-08-30T04:57:13.425Z,99.90
2018-08-30T04:59:42.245Z,99.90
2018-08-30T05:02:11.102Z,99.30
2018-08-30T05:04:39.935Z,99.00
2018-08-30T05:07:08.771Z,98.80
2018-08-30T05:09:37.599Z,98.80
2018-08-30T05:12:06.437Z,98.70
2018-08-30T05:14:35.280Z,98.60
2018-08-30T05:17:04.100Z,98.40
2018-08-30T05:19:32.933Z,98.30
2018-08-30T05:22:01.770Z,98.00
2018-08-30T05:24:30.610Z,97.80
2018-08-30T05:26:59.423Z,97.80
2018-08-30T05:29:28.248Z,97.90
2018-08-30T05:31:57.091Z,97.70
2018-08-30T05:34:25.932Z,97.70
2018-08-30T05:36:54.744Z,97.30
2018-08-30T05:39:23.583Z,97.50
2018-08-30T05:41:52.415Z,97.40
2018-08-30T05:44:21.244Z,97.20
2018-08-30T05:46:50.087Z,97.20
2018-08-30T05:49:18.910Z,97.00
2018-08-30T05:51:47.742Z,96.80
2018-08-30T05:54:16.616Z,96.60
2018-08-30T05:56:46.390Z,96.80
2018-08-30T05:59:14.977Z,96.70
2018-08-30T06:01:43.817Z,96.70
2018-08-30T06:04:12.652Z,96.90
2018-08-30T06:06:41.479Z,97.10
2018-08-30T06:09:10.320Z,96.90
2018-08-30T06:11:39.150Z,96.80
2018-08-30T06:14:07.977Z,96.80
2018-08-30T06:16:36.824Z,96.80
2018-08-30T06:19:05.660Z,96.70
2018-08-30T06:21:34.491Z,96.60
2018-08-30T06:24:03.329Z,96.20
2018-08-30T06:26:32.913Z,96.20
2018-08-30T06:29:01.746Z,96.10
2018-08-30T06:31:31.329Z,96.20
2018-08-30T06:34:00.176Z,95.90
2018-08-30T06:36:29.006Z,95.90
2018-08-30T06:38:57.838Z,96.00
2018-08-30T06:41:26.676Z,95.90
2018-08-30T06:43:55.498Z,95.70
2018-08-30T06:46:25.073Z,95.50
2018-08-30T06:48:53.934Z,95.50
2018-08-30T06:51:22.745Z,94.90
2018-08-30T06:53:51.578Z,94.60
2018-08-30T06:56:21.207Z,94.50
2018-08-30T06:58:49.987Z,94.40
2018-08-30T07:01:18.834Z,94.60
2018-08-30T07:03:47.669Z,93.80
2018-08-30T07:06:16.517Z,93.90
2018-08-30T07:08:46.090Z,93.60
2018-08-30T07:11:14.915Z,93.60
2018-08-30T07:16:13.918Z,93.60
2018-08-30T07:18:42.763Z,93.30
2018-08-30T07:21:12.818Z,93.50
2018-08-30T07:23:41.275Z,93.40
2018-08-30T07:26:10.123Z,93.10
2018-08-30T07:28:39.857Z,92.80
2018-08-30T07:31:08.541Z,92.60
2018-08-30T07:33:37.377Z,92.60
2018-08-30T07:36:06.213Z,92.70
2018-08-30T07:38:35.053Z,92.70
2018-08-30T07:41:03.893Z,92.20
2018-08-30T07:43:32.718Z,92.30
2018-08-30T07:46:01.575Z,91.80
2018-08-30T07:48:30.417Z,91.90
2018-08-30T07:50:59.258Z,91.80
2018-08-30T07:53:28.081Z,91.60
2018-08-30T07:55:56.945Z,91.90
2018-08-30T07:58:25.785Z,92.30
2018-08-30T08:00:54.629Z,91.60
2018-08-30T08:03:23.494Z,91.70
2018-08-30T08:05:52.380Z,91.40
2018-08-30T08:08:21.167Z,91.70
2018-08-30T08:10:50.013Z,91.60
2018-08-30T08:13:18.866Z,91.60
2018-08-30T08:15:47.692Z,91.40
2018-08-30T08:18:16.523Z,90.60
2018-08-30T08:20:45.371Z,90.50
2018-08-30T08:23:14.206Z,90.50
2018-08-30T08:25:43.029Z,90.50
2018-08-30T08:28:11.878Z,90.30
2018-08-30T08:30:40.711Z,90.10
2018-08-30T08:33:09.545Z,90.00
2018-08-30T08:35:38.375Z,89.60
2018-08-30T08:38:07.215Z,90.00
2018-08-30T08:40:36.797Z,89.70
2018-08-30T08:43:05.720Z,88.40
2018-08-30T08:45:34.535Z,88.10
2018-08-30T08:48:03.392Z,87.60
2018-08-30T08:50:32.968Z,87.90
2018-08-30T08:53:01.800Z,88.10
2018-08-30T08:55:30.637Z,86.40
2018-08-30T08:57:59.468Z,86.40
2018-08-30T09:00:29.053Z,85.70
2018-08-30T09:02:57.910Z,85.50
2018-08-30T09:05:26.733Z,86.10
2018-08-30T09:07:55.615Z,86.20
2018-08-30T09:10:24.425Z,86.50
2018-08-30T09:12:54.013Z,86.40
2018-08-30T09:17:52.303Z,86.60
2018-08-30T09:20:21.137Z,86.30
2018-08-30T09:22:49.975Z,86.60
2018-08-30T09:27:48.299Z,87.30
2018-08-30T09:30:17.147Z,86.20
2018-08-30T09:32:45.995Z,85.40
2018-08-30T09:35:14.867Z,85.00
2018-08-30T09:37:43.673Z,83.90
2018-08-30T09:40:12.516Z,83.40
2018-08-30T09:42:41.355Z,83.40
2018-08-30T09:45:10.200Z,83.30
2018-08-30T09:47:39.054Z,82.00
2018-08-30T09:50:07.884Z,81.80
2018-08-30T09:52:36.736Z,82.70
2018-08-30T09:55:05.579Z,82.30
2018-08-30T09:57:34.482Z,82.20
2018-08-30T10:00:03.279Z,82.30
2018-08-30T10:02:32.125Z,81.60
2018-08-30T10:05:00.982Z,81.60
2018-08-30T10:07:29.821Z,80.90
2018-08-30T10:09:58.667Z,81.00
2018-08-30T10:12:27.536Z,80.90
2018-08-30T10:14:56.369Z,80.60
2018-08-30T10:17:25.227Z,82.20
2018-08-30T10:19:54.064Z,80.50
2018-08-30T10:22:23.643Z,81.70
2018-08-30T10:24:52.488Z,80.70
2018-08-30T10:27:21.332Z,81.10
2018-08-30T10:29:50.184Z,81.80
2018-08-30T10:32:19.015Z,81.10
2018-08-30T10:34:47.866Z,81.20
2018-08-30T10:37:16.715Z,81.00
2018-08-30T10:39:45.572Z,80.80
2018-08-30T10:42:14.410Z,80.70
2018-08-30T10:44:43.254Z,80.70
2018-08-30T10:47:12.086Z,79.60
2018-08-30T10:49:40.971Z,80.50
2018-08-30T10:52:09.796Z,79.80
2018-08-30T10:54:38.636Z,79.80
2018-08-30T10:57:07.472Z,78.90
2018-08-30T10:59:36.314Z,79.90
2018-08-30T11:02:05.166Z,80.80
2018-08-30T11:04:34.736Z,80.70
2018-08-30T11:07:03.613Z,80.20
2018-08-30T11:09:32.445Z,79.60
2018-08-30T11:12:01.281Z,79.30
2018-08-30T11:14:30.118Z,77.20
2018-08-30T11:16:58.961Z,76.60
2018-08-30T11:19:27.842Z,76.00
2018-08-30T11:21:56.645Z,75.20
2018-08-30T11:24:25.496Z,75.40
2018-08-30T11:26:54.309Z,74.60
2018-08-30T11:29:23.163Z,74.80
2018-08-30T11:31:52.005Z,74.40
2018-08-30T11:34:20.857Z,74.40
2018-08-30T11:36:49.712Z,74.00
2018-08-30T11:39:18.565Z,73.60
2018-08-30T11:41:47.497Z,73.20
2018-08-30T11:44:16.251Z,73.70
2018-08-30T11:46:45.085Z,74.50
2018-08-30T11:49:13.933Z,74.20
2018-08-30T11:51:42.771Z,74.30
2018-08-30T11:54:11.643Z,72.50
2018-08-30T11:56:40.457Z,71.60
2018-08-30T11:59:09.294Z,69.80
2018-08-30T12:01:38.136Z,70.30
2018-08-30T12:04:07.018Z,70.90
2018-08-30T12:06:35.845Z,71.50
2018-08-30T12:09:04.685Z,72.80
2018-08-30T12:11:33.541Z,72.80
2018-08-30T12:14:02.358Z,72.90
2018-08-30T12:16:31.197Z,73.40
2018-08-30T12:19:00.061Z,73.00
2018-08-30T12:21:28.883Z,73.30
2018-08-30T12:23:57.743Z,74.00
2018-08-30T12:26:26.583Z,75.10
2018-08-30T12:28:55.427Z,74.80
2018-08-30T12:31:24.331Z,74.30
2018-08-30T12:33:53.150Z,74.50
2018-08-30T12:36:22.737Z,74.50
2018-08-30T12:38:51.574Z,74.80
2018-08-30T12:41:20.454Z,75.20
2018-08-30T12:43:49.367Z,75.00
2018-08-30T12:46:18.124Z,74.50
2018-08-30T12:48:47.718Z,74.00
2018-08-30T12:51:16.740Z,73.40
2018-08-30T12:53:45.431Z,74.10
2018-08-30T12:56:14.306Z,74.10
2018-08-30T12:58:43.151Z,74.00
2018-08-30T13:01:12.069Z,73.80
2018-08-30T13:03:40.787Z,74.40
2018-08-30T13:06:09.854Z,74.20
2018-08-30T13:08:38.654Z,74.40
2018-08-30T13:11:07.754Z,74.10
2018-08-30T13:13:36.198Z,74.50
2018-08-30T13:16:05.082Z,75.00
2018-08-30T13:18:34.080Z,74.00
2018-08-30T13:21:02.887Z,74.10
2018-08-30T13:23:31.688Z,74.40
2018-08-30T13:26:01.233Z,74.40
2018-08-30T13:28:30.839Z,74.70
2018-08-30T13:30:59.824Z,74.80
2018-08-30T13:35:58.294Z,73.80
2018-08-30T13:38:26.960Z,72.40
2018-08-30T13:40:55.991Z,71.40
2018-08-30T13:43:25.196Z,70.50
2018-08-30T13:45:54.154Z,69.90
2018-08-30T13:48:23.013Z,69.20
2018-08-30T13:50:51.830Z,68.20
2018-08-30T13:53:20.887Z,68.80
2018-08-30T13:55:49.660Z,69.80
2018-08-30T13:58:18.324Z,68.60
2018-08-30T14:00:48.136Z,69.60
2018-08-30T14:03:16.723Z,69.70
2018-08-30T14:05:45.653Z,70.20
2018-08-30T14:08:14.424Z,69.80
2018-08-30T14:10:44.154Z,69.30
2018-08-30T14:13:12.840Z,69.60
2018-08-30T14:15:41.508Z,69.40
2018-08-30T14:18:10.310Z,68.10
2018-08-30T14:20:39.135Z,68.90
2018-08-30T14:23:08.031Z,69.10
2018-08-30T14:25:36.839Z,70.40
2018-08-30T14:28:06.438Z,70.70
2018-08-30T14:30:35.289Z,70.40
2018-08-30T14:33:04.141Z,70.60
2018-08-30T14:35:32.929Z,71.50
2018-08-30T14:40:31.363Z,72.50
2018-08-30T14:43:00.037Z,72.20
2018-08-30T14:45:28.917Z,72.50
2018-08-30T14:47:58.554Z,72.40
2018-08-30T14:50:27.361Z,72.60
2018-08-30T14:52:56.199Z,72.80
2018-08-30T14:55:25.045Z,73.50
2018-08-30T14:57:53.890Z,72.40
2018-08-30T15:00:22.869Z,71.50
2018-08-30T15:02:51.597Z,71.50
2018-08-30T15:05:20.579Z,72.10
2018-08-30T15:07:49.294Z,72.70
2018-08-30T15:10:18.135Z,72.60
2018-08-30T15:12:47.215Z,72.60
2018-08-30T15:15:15.836Z,73.40
2018-08-30T15:17:44.746Z,73.90
2018-08-30T15:20:13.692Z,74.60
2018-08-30T15:22:42.374Z,74.20
2018-08-30T15:25:11.215Z,74.60
2018-08-30T15:27:40.059Z,75.30
2018-08-30T15:30:08.891Z,77.00
2018-08-30T15:32:37.734Z,75.80
2018-08-30T15:35:06.609Z,76.00
2018-08-30T15:37:35.399Z,75.30
2018-08-30T15:40:04.242Z,75.20
2018-08-30T15:42:33.095Z,74.90
2018-08-30T15:45:01.941Z,72.10
2018-08-30T15:47:30.770Z,69.80
2018-08-30T15:49:59.653Z,70.70
2018-08-30T15:52:28.425Z,70.30
2018-08-30T15:54:58.004Z,70.90
2018-08-30T15:59:56.284Z,71.90
2018-08-30T16:02:25.118Z,72.60
2018-08-30T16:04:53.954Z,72.00
2018-08-30T16:07:22.788Z,72.20
2018-08-30T16:09:51.638Z,73.20
2018-08-30T16:12:20.554Z,72.80
2018-08-30T16:17:18.900Z,66.00
2018-08-30T16:19:47.667Z,65.20
2018-08-30T16:22:16.572Z,65.80
2018-08-30T16:24:45.450Z,66.20
2018-08-30T16:27:14.170Z,66.80
2018-08-30T16:29:43.020Z,66.10
2018-08-30T16:32:11.846Z,66.40
2018-08-30T16:34:40.673Z,66.80
2018-08-30T16:37:09.512Z,67.40
2018-08-30T16:39:38.410Z,69.90
2018-08-30T16:42:07.966Z,71.30
2018-08-30T16:44:36.807Z,72.50
2018-08-30T16:47:05.642Z,73.90
2018-08-30T16:49:34.453Z,72.80
2018-08-30T16:52:03.275Z,71.70
2018-08-30T16:54:32.112Z,72.10
2018-08-30T16:57:00.954Z,72.90
2018-08-30T16:59:29.986Z,73.30
2018-08-30T17:01:58.679Z,74.30
2018-08-30T17:04:27.489Z,75.30
2018-08-30T17:06:56.335Z,75.60
2018-08-30T17:09:25.180Z,76.00
2018-08-30T17:11:54.023Z,76.70
2018-08-30T17:14:23.595Z,78.40
2018-08-30T17:16:52.423Z,78.70
2018-08-30T17:19:21.262Z,79.30
2018-08-30T17:21:50.099Z,80.10
2018-08-30T17:24:19.675Z,81.70
2018-08-30T17:26:48.536Z,83.30
2018-08-30T17:29:17.383Z,85.10
2018-08-30T17:31:46.261Z,85.50
2018-08-30T17:34:15.088Z,86.30
2018-08-30T17:36:43.942Z,86.30
2018-08-30T17:39:12.784Z,86.30
2018-08-30T17:41:41.616Z,87.20
2018-08-30T17:46:39.882Z,86.40
2018-08-30T17:49:08.717Z,86.50
2018-08-30T17:51:37.568Z,85.70
2018-08-30T17:54:06.506Z,85.40
2018-08-30T17:56:35.267Z,85.60
2018-08-30T17:59:04.108Z,85.70
2018-08-30T18:01:33.195Z,84.90
2018-08-30T18:04:01.807Z,84.00
2018-08-30T18:06:30.650Z,82.70
2018-08-30T18:08:59.539Z,82.00
2018-08-30T18:11:28.332Z,81.40
2018-08-30T18:13:57.172Z,81.40
2018-08-30T18:16:26.040Z,81.10
2018-08-30T18:18:54.877Z,80.40
2018-08-30T18:21:23.728Z,80.30
2018-08-30T18:23:52.560Z,79.30
2018-08-30T18:26:21.413Z,79.80
2018-08-30T18:28:50.244Z,80.30
2018-08-30T18:31:19.850Z,80.60
2018-08-30T18:33:48.668Z,80.60
2018-08-30T18:36:17.504Z,80.90
2018-08-30T18:41:15.795Z,82.00
2018-08-30T18:43:44.624Z,81.80
2018-08-30T18:46:13.499Z,82.00
2018-08-30T18:48:43.078Z,82.40
2018-08-30T18:51:11.953Z,82.80
2018-08-30T18:53:40.801Z,83.10
2018-08-30T18:56:09.635Z,83.30
2018-08-30T18:58:38.510Z,83.30
2018-08-30T19:01:07.320Z,84.20
2018-08-30T19:03:36.215Z,84.60
2018-08-30T19:06:05.019Z,85.10
2018-08-30T19:08:33.901Z,85.40
2018-08-30T19:11:02.711Z,85.40
2018-08-30T19:13:32.311Z,86.10
2018-08-30T19:16:01.152Z,87.20
2018-08-30T19:18:35.650Z,87.80
2018-08-30T19:21:04.527Z,88.40
2018-08-30T19:23:33.365Z,89.10
2018-08-30T19:26:02.208Z,88.80
2018-08-30T19:28:31.073Z,90.10
2018-08-30T19:30:59.917Z,90.80
2018-08-30T19:33:29.718Z,91.60
2018-08-30T19:35:58.574Z,92.20
2018-08-30T19:38:28.157Z,92.40
2018-08-30T19:40:57.020Z,93.00
2018-08-30T19:43:25.876Z,93.20
2018-08-30T19:45:54.725Z,93.30
2018-08-30T19:48:23.556Z,93.50
2018-08-30T19:50:52.406Z,93.40
2018-08-30T19:53:21.263Z,93.50
2018-08-30T19:55:50.123Z,93.80
2018-08-30T19:58:18.981Z,94.10
2018-08-30T20:00:47.856Z,94.10
2018-08-30T20:03:16.731Z,94.40
2018-08-30T20:08:17.407Z,94.00
2018-08-30T20:10:46.273Z,94.10
2018-08-30T20:13:15.165Z,94.20
2018-08-30T20:15:44.036Z,94.30
2018-08-30T20:18:12.839Z,94.20
2018-08-30T20:20:41.687Z,94.20
2018-08-30T20:23:10.529Z,94.30
2018-08-30T20:25:39.391Z,94.40
2018-08-30T20:28:08.253Z,94.50
2018-08-30T20:30:37.105Z,94.40
2018-08-30T20:33:05.977Z,94.20
2018-08-30T20:35:34.821Z,93.80
2018-08-30T20:38:03.692Z,93.60
2018-08-30T20:40:32.543Z,93.30
2018-08-30T20:43:01.386Z,92.70
2018-08-30T20:45:30.226Z,92.40
2018-08-30T20:47:59.074Z,91.70
2018-08-30T20:50:27.920Z,91.10
2018-08-30T20:52:56.832Z,90.10
2018-08-30T20:55:25.682Z,85.60
2018-08-30T20:57:54.514Z,82.80
2018-08-30T21:00:23.446Z,80.50
2018-08-30T21:02:52.210Z,79.00
2018-08-30T21:05:21.043Z,78.10
2018-08-30T21:07:49.884Z,76.80
2018-08-30T21:10:18.734Z,74.50
2018-08-30T21:12:47.595Z,73.70
2018-08-30T21:15:16.427Z,73.00
2018-08-30T21:17:45.270Z,73.00
2018-08-30T21:20:14.107Z,72.20
2018-08-30T21:22:43.709Z,71.60
2018-08-30T21:25:12.546Z,71.40
2018-08-30T21:27:41.455Z,71.40
2018-08-30T21:30:10.217Z,70.90
2018-08-30T21:32:39.064Z,70.60
2018-08-30T21:35:08.639Z,71.00
2018-08-30T21:37:37.475Z,70.80
2018-08-30T21:40:07.046Z,70.30
2018-08-30T21:42:35.892Z,70.30
2018-08-30T21:45:04.734Z,69.60
2018-08-30T21:47:33.571Z,69.30
2018-08-30T21:50:02.407Z,69.60
2018-08-30T21:52:31.252Z,69.40
2018-08-30T21:55:00.102Z,69.20
2018-08-30T21:57:29.674Z,69.30
2018-08-30T21:59:58.504Z,68.60
2018-08-30T22:02:27.410Z,68.60
2018-08-30T22:04:56.175Z,68.40
2018-08-30T22:07:25.751Z,68.40
2018-08-30T22:09:54.593Z,68.50
2018-08-30T22:12:23.411Z,68.90
2018-08-30T22:14:52.247Z,67.70
2018-08-30T22:17:21.823Z,68.20
2018-08-30T22:19:50.655Z,68.50
2018-08-30T22:22:19.495Z,67.60
2018-08-30T22:24:48.331Z,68.20
2018-08-30T22:27:17.174Z,68.10
2018-08-30T22:29:46.012Z,67.90
2018-08-30T22:32:15.608Z,67.90
2018-08-30T22:34:44.442Z,67.90
2018-08-30T22:37:13.289Z,67.60
2018-08-30T22:39:42.127Z,67.60
2018-08-30T22:42:10.953Z,67.80
2018-08-30T22:44:39.780Z,67.60
2018-08-30T22:47:08.619Z,68.00
2018-08-30T22:49:37.459Z,67.90
2018-08-30T22:52:06.297Z,68.00
2018-08-30T22:54:35.118Z,67.80
2018-08-30T22:57:04.692Z,67.80
2018-08-30T22:59:33.526Z,68.30
2018-08-30T23:02:02.365Z,68.10
2018-08-30T23:04:31.190Z,68.30
2018-08-30T23:07:00.044Z,68.60
2018-08-30T23:09:28.887Z,68.70
2018-08-30T23:11:57.736Z,69.70
2018-08-30T23:14:26.598Z,71.40
2018-08-30T23:16:55.426Z,72.60
2018-08-30T23:19:25.001Z,73.20
2018-08-30T23:21:53.835Z,73.60
2018-08-30T23:24:23.414Z,73.60
2018-08-30T23:26:52.982Z,73.80
2018-08-30T23:29:21.808Z,74.00
2018-08-30T23:31:50.653Z,74.10
2018-08-30T23:34:19.475Z,74.00
2018-08-30T23:36:48.333Z,74.60
2018-08-30T23:39:17.162Z,75.20
2018-08-30T23:41:46.007Z,75.60
2018-08-30T23:44:14.839Z,75.60
2018-08-30T23:46:43.683Z,75.90
2018-08-30T23:49:12.514Z,76.00
2018-08-30T23:51:41.341Z,76.10
2018-08-30T23:54:10.216Z,75.90
2018-08-30T23:56:39.792Z,76.10
2018-08-30T23:59:23.551Z,76.00
